sensor_id;sensor_type;location;lat;lon;timestamp;P1;durP1;ratioP1;P2;durP2;ratioP2
61785;SDS011;47692;53.714;11.372;2023-02-08T00:01:30;24.52;;;11.25;;
61785;SDS011;47692;53.714;11.372;2023-02-08T00:03:56;21.58;;;11.77;;
61785;SDS011;47692;53.714;11.372;2023-02-08T00:06:21;21.60;;;10.13;;
61785;SDS011;47692;53.714;11.372;2023-02-08T00:08:46;23.90;;;12.45;;
61785;SDS011;47692;53.714;11.372;2023-02-08T00:11:12;27.30;;;11.88;;
61785;SDS011;47692;53.714;11.372;2023-02-08T00:13:38;21.02;;;10.30;;
61785;SDS011;47692;53.714;11.372;2023-02-08T00:16:04;22.83;;;10.85;;
61785;SDS011;47692;53.714;11.372;2023-02-08T00:18:30;22.42;;;12.07;;
61785;SDS011;47692;53.714;11.372;2023-02-08T00:20:56;24.83;;;11.18;;
61785;SDS011;47692;53.714;11.372;2023-02-08T00:23:21;25.95;;;11.18;;
61785;SDS011;47692;53.714;11.372;2023-02-08T00:25:47;28.27;;;11.95;;
61785;SDS011;47692;53.714;11.372;2023-02-08T00:28:13;25.10;;;12.75;;
61785;SDS011;47692;53.714;11.372;2023-02-08T00:30:40;25.27;;;11.88;;
61785;SDS011;47692;53.714;11.372;2023-02-08T00:33:06;21.98;;;10.85;;
61785;SDS011;47692;53.714;11.372;2023-02-08T00:35:32;24.08;;;11.57;;
61785;SDS011;47692;53.714;11.372;2023-02-08T00:37:57;24.83;;;12.40;;
61785;SDS011;47692;53.714;11.372;2023-02-08T00:40:23;27.00;;;11.90;;
61785;SDS011;47692;53.714;11.372;2023-02-08T00:42:49;26.23;;;12.32;;
61785;SDS011;47692;53.714;11.372;2023-02-08T00:45:14;24.70;;;11.55;;
61785;SDS011;47692;53.714;11.372;2023-02-08T00:47:40;23.90;;;11.15;;
61785;SDS011;47692;53.714;11.372;2023-02-08T00:50:05;21.88;;;10.85;;
61785;SDS011;47692;53.714;11.372;2023-02-08T00:52:30;22.45;;;10.23;;
61785;SDS011;47692;53.714;11.372;2023-02-08T00:54:59;23.85;;;11.40;;
61785;SDS011;47692;53.714;11.372;2023-02-08T00:57:24;23.05;;;10.10;;
61785;SDS011;47692;53.714;11.372;2023-02-08T00:59:49;23.90;;;11.63;;
61785;SDS011;47692;53.714;11.372;2023-02-08T01:02:15;23.15;;;11.52;;
61785;SDS011;47692;53.714;11.372;2023-02-08T01:04:40;23.77;;;10.95;;
61785;SDS011;47692;53.714;11.372;2023-02-08T01:07:06;21.63;;;9.65;;
61785;SDS011;47692;53.714;11.372;2023-02-08T01:09:32;22.13;;;10.88;;
61785;SDS011;47692;53.714;11.372;2023-02-08T01:11:58;22.80;;;11.55;;
61785;SDS011;47692;53.714;11.372;2023-02-08T01:14:23;26.33;;;11.43;;
61785;SDS011;47692;53.714;11.372;2023-02-08T01:16:49;25.08;;;11.60;;
61785;SDS011;47692;53.714;11.372;2023-02-08T01:19:15;20.98;;;10.98;;
61785;SDS011;47692;53.714;11.372;2023-02-08T01:21:41;24.90;;;10.90;;
61785;SDS011;47692;53.714;11.372;2023-02-08T01:24:08;23.17;;;10.60;;
61785;SDS011;47692;53.714;11.372;2023-02-08T01:26:34;23.10;;;11.02;;
61785;SDS011;47692;53.714;11.372;2023-02-08T01:28:59;23.60;;;10.07;;
61785;SDS011;47692;53.714;11.372;2023-02-08T01:31:26;23.90;;;11.13;;
61785;SDS011;47692;53.714;11.372;2023-02-08T01:33:55;27.67;;;11.73;;
61785;SDS011;47692;53.714;11.372;2023-02-08T01:36:21;22.95;;;11.73;;
61785;SDS011;47692;53.714;11.372;2023-02-08T01:38:46;24.35;;;10.95;;
61785;SDS011;47692;53.714;11.372;2023-02-08T01:41:13;25.15;;;11.05;;
61785;SDS011;47692;53.714;11.372;2023-02-08T01:46:30;22.42;;;11.02;;
61785;SDS011;47692;53.714;11.372;2023-02-08T01:49:01;26.02;;;11.85;;
61785;SDS011;47692;53.714;11.372;2023-02-08T01:51:52;26.85;;;12.13;;
61785;SDS011;47692;53.714;11.372;2023-02-08T01:54:22;31.15;;;12.63;;
61785;SDS011;47692;53.714;11.372;2023-02-08T01:56:50;22.92;;;12.40;;
61785;SDS011;47692;53.714;11.372;2023-02-08T01:59:17;34.85;;;13.85;;
61785;SDS011;47692;53.714;11.372;2023-02-08T02:01:46;29.75;;;12.05;;
61785;SDS011;47692;53.714;11.372;2023-02-08T02:04:15;31.95;;;14.75;;
61785;SDS011;47692;53.714;11.372;2023-02-08T02:06:44;30.00;;;13.10;;
61785;SDS011;47692;53.714;11.372;2023-02-08T02:09:30;25.73;;;12.23;;
61785;SDS011;47692;53.714;11.372;2023-02-08T02:12:02;30.88;;;13.38;;
61785;SDS011;47692;53.714;11.372;2023-02-08T02:14:28;32.22;;;12.73;;
61785;SDS011;47692;53.714;11.372;2023-02-08T02:16:54;27.70;;;13.02;;
61785;SDS011;47692;53.714;11.372;2023-02-08T02:19:23;31.55;;;13.52;;
61785;SDS011;47692;53.714;11.372;2023-02-08T02:36:15;28.02;;;13.57;;
61785;SDS011;47692;53.714;11.372;2023-02-08T02:41:53;28.27;;;13.35;;
61785;SDS011;47692;53.714;11.372;2023-02-08T02:44:51;32.22;;;13.98;;
61785;SDS011;47692;53.714;11.372;2023-02-08T02:50:03;32.08;;;15.32;;
61785;SDS011;47692;53.714;11.372;2023-02-08T02:52:38;29.63;;;13.85;;
61785;SDS011;47692;53.714;11.372;2023-02-08T02:55:10;32.28;;;13.45;;
61785;SDS011;47692;53.714;11.372;2023-02-08T03:00:09;29.63;;;13.93;;
61785;SDS011;47692;53.714;11.372;2023-02-08T03:02:38;35.00;;;14.25;;
61785;SDS011;47692;53.714;11.372;2023-02-08T03:05:05;31.17;;;13.60;;
61785;SDS011;47692;53.714;11.372;2023-02-08T03:07:57;31.60;;;14.38;;
61785;SDS011;47692;53.714;11.372;2023-02-08T03:21:17;30.60;;;14.07;;
61785;SDS011;47692;53.714;11.372;2023-02-08T03:26:39;31.75;;;13.80;;
61785;SDS011;47692;53.714;11.372;2023-02-08T03:32:10;31.90;;;13.52;;
61785;SDS011;47692;53.714;11.372;2023-02-08T03:34:50;30.08;;;14.23;;
61785;SDS011;47692;53.714;11.372;2023-02-08T03:40:20;29.30;;;13.65;;
61785;SDS011;47692;53.714;11.372;2023-02-08T03:42:49;30.48;;;14.10;;
61785;SDS011;47692;53.714;11.372;2023-02-08T03:45:25;32.17;;;14.00;;
61785;SDS011;47692;53.714;11.372;2023-02-08T03:47:56;32.13;;;15.38;;
61785;SDS011;47692;53.714;11.372;2023-02-08T03:50:28;34.67;;;15.27;;
61785;SDS011;47692;53.714;11.372;2023-02-08T03:52:57;32.60;;;14.88;;
61785;SDS011;47692;53.714;11.372;2023-02-08T03:55:23;33.92;;;15.25;;
61785;SDS011;47692;53.714;11.372;2023-02-08T03:57:55;32.65;;;15.25;;
61785;SDS011;47692;53.714;11.372;2023-02-08T04:00:24;34.83;;;15.63;;
61785;SDS011;47692;53.714;11.372;2023-02-08T04:02:56;43.38;;;16.10;;
61785;SDS011;47692;53.714;11.372;2023-02-08T04:05:26;28.73;;;14.20;;
61785;SDS011;47692;53.714;11.372;2023-02-08T04:07:53;38.85;;;15.38;;
61785;SDS011;47692;53.714;11.372;2023-02-08T04:10:18;36.15;;;16.33;;
61785;SDS011;47692;53.714;11.372;2023-02-08T04:12:43;31.30;;;15.15;;
61785;SDS011;47692;53.714;11.372;2023-02-08T04:15:10;37.75;;;16.00;;
61785;SDS011;47692;53.714;11.372;2023-02-08T04:17:36;33.90;;;15.60;;
61785;SDS011;47692;53.714;11.372;2023-02-08T04:20:01;33.83;;;14.98;;
61785;SDS011;47692;53.714;11.372;2023-02-08T04:22:27;36.65;;;14.80;;
61785;SDS011;47692;53.714;11.372;2023-02-08T04:24:52;30.77;;;14.82;;
61785;SDS011;47692;53.714;11.372;2023-02-08T04:27:17;34.80;;;16.92;;
61785;SDS011;47692;53.714;11.372;2023-02-08T04:29:43;31.90;;;14.80;;
61785;SDS011;47692;53.714;11.372;2023-02-08T04:32:08;33.40;;;14.68;;
61785;SDS011;47692;53.714;11.372;2023-02-08T04:34:36;37.33;;;15.70;;
61785;SDS011;47692;53.714;11.372;2023-02-08T04:37:02;36.92;;;15.60;;
61785;SDS011;47692;53.714;11.372;2023-02-08T04:39:28;31.85;;;15.85;;
61785;SDS011;47692;53.714;11.372;2023-02-08T04:41:53;33.10;;;14.43;;
61785;SDS011;47692;53.714;11.372;2023-02-08T04:44:18;30.90;;;14.93;;
61785;SDS011;47692;53.714;11.372;2023-02-08T04:46:44;30.30;;;13.63;;
61785;SDS011;47692;53.714;11.372;2023-02-08T04:49:09;36.00;;;15.50;;
61785;SDS011;47692;53.714;11.372;2023-02-08T04:51:34;40.45;;;16.92;;
61785;SDS011;47692;53.714;11.372;2023-02-08T04:54:00;32.92;;;16.38;;
61785;SDS011;47692;53.714;11.372;2023-02-08T04:56:25;32.85;;;15.50;;
61785;SDS011;47692;53.714;11.372;2023-02-08T04:58:50;33.55;;;15.30;;
61785;SDS011;47692;53.714;11.372;2023-02-08T05:01:16;37.15;;;16.77;;
61785;SDS011;47692;53.714;11.372;2023-02-08T05:03:41;37.33;;;16.45;;
61785;SDS011;47692;53.714;11.372;2023-02-08T05:06:07;34.20;;;15.52;;
61785;SDS011;47692;53.714;11.372;2023-02-08T05:08:32;38.55;;;16.20;;
61785;SDS011;47692;53.714;11.372;2023-02-08T05:10:57;35.47;;;15.85;;
61785;SDS011;47692;53.714;11.372;2023-02-08T05:13:23;37.15;;;17.00;;
61785;SDS011;47692;53.714;11.372;2023-02-08T05:15:48;36.22;;;14.85;;
61785;SDS011;47692;53.714;11.372;2023-02-08T05:18:13;34.38;;;16.52;;
61785;SDS011;47692;53.714;11.372;2023-02-08T05:20:39;33.05;;;14.63;;
61785;SDS011;47692;53.714;11.372;2023-02-08T05:23:04;38.72;;;16.10;;
61785;SDS011;47692;53.714;11.372;2023-02-08T05:25:30;32.22;;;15.52;;
61785;SDS011;47692;53.714;11.372;2023-02-08T05:27:55;39.20;;;16.17;;
61785;SDS011;47692;53.714;11.372;2023-02-08T05:30:20;37.25;;;16.00;;
61785;SDS011;47692;53.714;11.372;2023-02-08T05:32:46;34.92;;;17.10;;
61785;SDS011;47692;53.714;11.372;2023-02-08T05:35:11;35.15;;;16.05;;
61785;SDS011;47692;53.714;11.372;2023-02-08T05:37:37;32.72;;;14.18;;
61785;SDS011;47692;53.714;11.372;2023-02-08T05:40:02;32.03;;;14.93;;
61785;SDS011;47692;53.714;11.372;2023-02-08T05:42:27;33.65;;;16.27;;
61785;SDS011;47692;53.714;11.372;2023-02-08T05:44:53;37.95;;;16.23;;
61785;SDS011;47692;53.714;11.372;2023-02-08T05:47:18;34.63;;;16.02;;
61785;SDS011;47692;53.714;11.372;2023-02-08T05:49:43;40.85;;;16.98;;
61785;SDS011;47692;53.714;11.372;2023-02-08T05:52:09;32.80;;;15.85;;
61785;SDS011;47692;53.714;11.372;2023-02-08T05:54:34;34.03;;;15.60;;
61785;SDS011;47692;53.714;11.372;2023-02-08T05:57:00;33.38;;;15.32;;
61785;SDS011;47692;53.714;11.372;2023-02-08T05:59:25;39.03;;;17.88;;
61785;SDS011;47692;53.714;11.372;2023-02-08T06:01:51;36.75;;;16.27;;
61785;SDS011;47692;53.714;11.372;2023-02-08T06:04:16;38.60;;;17.02;;
61785;SDS011;47692;53.714;11.372;2023-02-08T06:06:41;37.65;;;17.17;;
61785;SDS011;47692;53.714;11.372;2023-02-08T06:09:07;42.80;;;17.13;;
61785;SDS011;47692;53.714;11.372;2023-02-08T06:11:32;35.13;;;15.73;;
61785;SDS011;47692;53.714;11.372;2023-02-08T06:13:58;41.70;;;16.25;;
61785;SDS011;47692;53.714;11.372;2023-02-08T06:16:23;39.13;;;17.80;;
61785;SDS011;47692;53.714;11.372;2023-02-08T06:18:48;42.90;;;15.80;;
61785;SDS011;47692;53.714;11.372;2023-02-08T06:21:14;43.00;;;17.88;;
61785;SDS011;47692;53.714;11.372;2023-02-08T06:23:39;38.00;;;16.65;;
61785;SDS011;47692;53.714;11.372;2023-02-08T06:26:05;37.40;;;16.50;;
61785;SDS011;47692;53.714;11.372;2023-02-08T06:28:30;41.55;;;18.13;;
61785;SDS011;47692;53.714;11.372;2023-02-08T06:30:55;41.60;;;16.38;;
61785;SDS011;47692;53.714;11.372;2023-02-08T06:33:21;45.90;;;17.70;;
61785;SDS011;47692;53.714;11.372;2023-02-08T06:35:52;39.85;;;16.55;;
61785;SDS011;47692;53.714;11.372;2023-02-08T06:38:17;37.72;;;16.88;;
61785;SDS011;47692;53.714;11.372;2023-02-08T06:40:44;40.80;;;16.92;;
61785;SDS011;47692;53.714;11.372;2023-02-08T06:43:10;41.03;;;17.52;;
61785;SDS011;47692;53.714;11.372;2023-02-08T06:45:36;40.17;;;16.75;;
61785;SDS011;47692;53.714;11.372;2023-02-08T06:48:01;44.13;;;18.40;;
61785;SDS011;47692;53.714;11.372;2023-02-08T06:50:26;41.78;;;17.45;;
61785;SDS011;47692;53.714;11.372;2023-02-08T06:52:52;40.65;;;16.42;;
61785;SDS011;47692;53.714;11.372;2023-02-08T06:55:17;34.72;;;17.15;;
61785;SDS011;47692;53.714;11.372;2023-02-08T06:57:42;45.05;;;18.52;;
61785;SDS011;47692;53.714;11.372;2023-02-08T07:00:08;37.92;;;17.33;;
61785;SDS011;47692;53.714;11.372;2023-02-08T07:02:34;37.05;;;16.60;;
61785;SDS011;47692;53.714;11.372;2023-02-08T07:04:59;40.22;;;17.75;;
61785;SDS011;47692;53.714;11.372;2023-02-08T07:07:25;43.45;;;16.98;;
61785;SDS011;47692;53.714;11.372;2023-02-08T07:09:51;39.00;;;16.33;;
61785;SDS011;47692;53.714;11.372;2023-02-08T07:12:16;39.22;;;17.92;;
61785;SDS011;47692;53.714;11.372;2023-02-08T07:14:42;40.63;;;17.15;;
61785;SDS011;47692;53.714;11.372;2023-02-08T07:17:08;44.63;;;17.95;;
61785;SDS011;47692;53.714;11.372;2023-02-08T07:19:35;41.20;;;18.00;;
61785;SDS011;47692;53.714;11.372;2023-02-08T07:22:00;37.28;;;16.58;;
61785;SDS011;47692;53.714;11.372;2023-02-08T07:24:32;39.55;;;17.10;;
61785;SDS011;47692;53.714;11.372;2023-02-08T07:27:05;40.42;;;17.08;;
61785;SDS011;47692;53.714;11.372;2023-02-08T07:29:32;35.70;;;15.85;;
61785;SDS011;47692;53.714;11.372;2023-02-08T07:31:58;37.58;;;13.90;;
61785;SDS011;47692;53.714;11.372;2023-02-08T07:34:24;38.65;;;16.05;;
61785;SDS011;47692;53.714;11.372;2023-02-08T07:36:52;39.60;;;15.57;;
61785;SDS011;47692;53.714;11.372;2023-02-08T07:39:17;39.05;;;15.88;;
61785;SDS011;47692;53.714;11.372;2023-02-08T07:41:43;34.10;;;15.45;;
61785;SDS011;47692;53.714;11.372;2023-02-08T07:44:08;37.45;;;14.60;;
61785;SDS011;47692;53.714;11.372;2023-02-08T07:46:33;34.83;;;15.02;;
61785;SDS011;47692;53.714;11.372;2023-02-08T07:48:59;33.05;;;14.18;;
61785;SDS011;47692;53.714;11.372;2023-02-08T07:51:24;35.75;;;14.93;;
61785;SDS011;47692;53.714;11.372;2023-02-08T07:53:50;33.35;;;14.73;;
61785;SDS011;47692;53.714;11.372;2023-02-08T07:56:15;28.85;;;12.75;;
61785;SDS011;47692;53.714;11.372;2023-02-08T07:58:41;33.10;;;13.43;;
61785;SDS011;47692;53.714;11.372;2023-02-08T08:01:06;31.23;;;12.80;;
61785;SDS011;47692;53.714;11.372;2023-02-08T08:03:32;25.52;;;13.13;;
61785;SDS011;47692;53.714;11.372;2023-02-08T08:05:57;28.13;;;12.55;;
61785;SDS011;47692;53.714;11.372;2023-02-08T08:08:22;32.92;;;13.63;;
61785;SDS011;47692;53.714;11.372;2023-02-08T08:10:48;33.97;;;13.77;;
61785;SDS011;47692;53.714;11.372;2023-02-08T08:13:13;29.15;;;11.65;;
61785;SDS011;47692;53.714;11.372;2023-02-08T08:15:38;29.10;;;12.00;;
61785;SDS011;47692;53.714;11.372;2023-02-08T08:18:04;34.97;;;12.82;;
61785;SDS011;47692;53.714;11.372;2023-02-08T08:20:30;26.98;;;12.20;;
61785;SDS011;47692;53.714;11.372;2023-02-08T08:22:55;25.67;;;11.32;;
61785;SDS011;47692;53.714;11.372;2023-02-08T08:25:21;27.55;;;11.43;;
61785;SDS011;47692;53.714;11.372;2023-02-08T08:27:46;29.42;;;13.18;;
61785;SDS011;47692;53.714;11.372;2023-02-08T08:30:12;27.92;;;11.65;;
61785;SDS011;47692;53.714;11.372;2023-02-08T08:32:39;26.38;;;11.77;;
61785;SDS011;47692;53.714;11.372;2023-02-08T08:35:05;30.58;;;12.70;;
61785;SDS011;47692;53.714;11.372;2023-02-08T08:37:32;33.08;;;13.70;;
61785;SDS011;47692;53.714;11.372;2023-02-08T08:39:58;30.17;;;13.15;;
61785;SDS011;47692;53.714;11.372;2023-02-08T08:42:23;30.15;;;13.43;;
61785;SDS011;47692;53.714;11.372;2023-02-08T08:44:50;31.67;;;13.82;;
61785;SDS011;47692;53.714;11.372;2023-02-08T08:47:16;35.47;;;12.75;;
61785;SDS011;47692;53.714;11.372;2023-02-08T08:49:41;30.35;;;13.07;;
61785;SDS011;47692;53.714;11.372;2023-02-08T08:52:07;31.25;;;12.82;;
61785;SDS011;47692;53.714;11.372;2023-02-08T08:54:33;34.08;;;13.55;;
61785;SDS011;47692;53.714;11.372;2023-02-08T08:57:00;27.67;;;12.88;;
61785;SDS011;47692;53.714;11.372;2023-02-08T08:59:26;37.30;;;13.50;;
61785;SDS011;47692;53.714;11.372;2023-02-08T09:01:52;28.08;;;12.07;;
61785;SDS011;47692;53.714;11.372;2023-02-08T09:04:17;26.50;;;11.70;;
61785;SDS011;47692;53.714;11.372;2023-02-08T09:06:43;34.08;;;13.85;;
61785;SDS011;47692;53.714;11.372;2023-02-08T09:09:08;34.95;;;14.25;;
61785;SDS011;47692;53.714;11.372;2023-02-08T09:11:34;31.48;;;12.90;;
61785;SDS011;47692;53.714;11.372;2023-02-08T09:14:03;29.77;;;13.82;;
61785;SDS011;47692;53.714;11.372;2023-02-08T09:16:29;29.88;;;13.48;;
61785;SDS011;47692;53.714;11.372;2023-02-08T09:18:54;28.38;;;11.40;;
61785;SDS011;47692;53.714;11.372;2023-02-08T09:21:21;30.27;;;13.77;;
61785;SDS011;47692;53.714;11.372;2023-02-08T09:23:49;28.83;;;11.52;;
61785;SDS011;47692;53.714;11.372;2023-02-08T09:26:16;30.70;;;13.00;;
61785;SDS011;47692;53.714;11.372;2023-02-08T09:28:42;29.67;;;13.70;;
61785;SDS011;47692;53.714;11.372;2023-02-08T09:33:35;30.85;;;12.95;;
61785;SDS011;47692;53.714;11.372;2023-02-08T09:36:01;30.60;;;13.18;;
61785;SDS011;47692;53.714;11.372;2023-02-08T09:38:27;30.73;;;13.82;;
61785;SDS011;47692;53.714;11.372;2023-02-08T09:43:53;29.05;;;12.98;;
61785;SDS011;47692;53.714;11.372;2023-02-08T09:46:39;31.67;;;13.82;;
61785;SDS011;47692;53.714;11.372;2023-02-08T09:49:16;34.92;;;15.18;;
61785;SDS011;47692;53.714;11.372;2023-02-08T09:51:49;34.83;;;14.43;;
61785;SDS011;47692;53.714;11.372;2023-02-08T09:57:09;28.83;;;14.13;;
61785;SDS011;47692;53.714;11.372;2023-02-08T09:59:39;35.22;;;14.73;;
61785;SDS011;47692;53.714;11.372;2023-02-08T10:02:25;34.47;;;16.20;;
61785;SDS011;47692;53.714;11.372;2023-02-08T10:07:41;35.22;;;15.13;;
61785;SDS011;47692;53.714;11.372;2023-02-08T10:10:15;40.47;;;17.27;;
61785;SDS011;47692;53.714;11.372;2023-02-08T10:15:40;30.95;;;14.02;;
61785;SDS011;47692;53.714;11.372;2023-02-08T10:21:21;29.75;;;15.02;;
61785;SDS011;47692;53.714;11.372;2023-02-08T10:24:04;31.55;;;14.35;;
61785;SDS011;47692;53.714;11.372;2023-02-08T10:26:45;29.90;;;13.85;;
61785;SDS011;47692;53.714;11.372;2023-02-08T10:29:29;32.97;;;13.82;;
61785;SDS011;47692;53.714;11.372;2023-02-08T10:39:42;29.60;;;13.77;;
61785;SDS011;47692;53.714;11.372;2023-02-08T10:42:12;32.30;;;14.90;;
61785;SDS011;47692;53.714;11.372;2023-02-08T10:47:22;30.95;;;13.40;;
61785;SDS011;47692;53.714;11.372;2023-02-08T10:53:04;29.40;;;14.85;;
61785;SDS011;47692;53.714;11.372;2023-02-08T10:55:30;41.22;;;15.77;;
61785;SDS011;47692;53.714;11.372;2023-02-08T10:57:59;29.80;;;14.07;;
61785;SDS011;47692;53.714;11.372;2023-02-08T11:00:29;28.73;;;13.60;;
61785;SDS011;47692;53.714;11.372;2023-02-08T11:02:58;33.22;;;14.77;;
61785;SDS011;47692;53.714;11.372;2023-02-08T11:05:34;35.45;;;16.27;;
61785;SDS011;47692;53.714;11.372;2023-02-08T11:08:09;31.50;;;15.40;;
61785;SDS011;47692;53.714;11.372;2023-02-08T11:10:39;31.05;;;14.20;;
61785;SDS011;47692;53.714;11.372;2023-02-08T11:15:36;32.03;;;14.88;;
61785;SDS011;47692;53.714;11.372;2023-02-08T11:18:04;33.65;;;14.70;;
61785;SDS011;47692;53.714;11.372;2023-02-08T11:20:35;32.40;;;15.20;;
61785;SDS011;47692;53.714;11.372;2023-02-08T11:23:04;32.50;;;14.63;;
61785;SDS011;47692;53.714;11.372;2023-02-08T11:25:41;32.38;;;14.18;;
61785;SDS011;47692;53.714;11.372;2023-02-08T11:28:20;30.98;;;13.98;;
61785;SDS011;47692;53.714;11.372;2023-02-08T11:30:54;30.70;;;13.95;;
61785;SDS011;47692;53.714;11.372;2023-02-08T11:33:30;30.58;;;13.77;;
61785;SDS011;47692;53.714;11.372;2023-02-08T11:36:03;26.67;;;13.60;;
61785;SDS011;47692;53.714;11.372;2023-02-08T11:38:31;27.77;;;13.00;;
61785;SDS011;47692;53.714;11.372;2023-02-08T11:40:59;30.88;;;15.00;;
61785;SDS011;47692;53.714;11.372;2023-02-08T11:43:29;38.38;;;17.30;;
61785;SDS011;47692;53.714;11.372;2023-02-08T11:45:57;26.85;;;13.80;;
61785;SDS011;47692;53.714;11.372;2023-02-08T11:48:37;28.10;;;13.15;;
61785;SDS011;47692;53.714;11.372;2023-02-08T11:53:34;27.80;;;13.80;;
61785;SDS011;47692;53.714;11.372;2023-02-08T11:56:05;27.02;;;12.70;;
61785;SDS011;47692;53.714;11.372;2023-02-08T11:58:30;27.83;;;12.90;;
61785;SDS011;47692;53.714;11.372;2023-02-08T12:01:16;30.25;;;13.43;;
61785;SDS011;47692;53.714;11.372;2023-02-08T12:03:44;27.42;;;12.65;;
61785;SDS011;47692;53.714;11.372;2023-02-08T12:17:51;32.63;;;13.70;;
61785;SDS011;47692;53.714;11.372;2023-02-08T12:20:31;29.85;;;12.70;;
61785;SDS011;47692;53.714;11.372;2023-02-08T12:26:01;30.95;;;13.88;;
61785;SDS011;47692;53.714;11.372;2023-02-08T12:31:16;31.73;;;13.90;;
61785;SDS011;47692;53.714;11.372;2023-02-08T12:39:07;29.23;;;13.50;;
61785;SDS011;47692;53.714;11.372;2023-02-08T12:50:04;26.40;;;12.13;;
61785;SDS011;47692;53.714;11.372;2023-02-08T12:52:44;29.35;;;12.35;;
61785;SDS011;47692;53.714;11.372;2023-02-08T12:58:19;27.88;;;12.40;;
61785;SDS011;47692;53.714;11.372;2023-02-08T13:00:46;24.33;;;11.45;;
61785;SDS011;47692;53.714;11.372;2023-02-08T13:06:24;25.58;;;11.55;;
61785;SDS011;47692;53.714;11.372;2023-02-08T13:14:22;28.80;;;12.13;;
61785;SDS011;47692;53.714;11.372;2023-02-08T13:16:57;26.65;;;11.13;;
61785;SDS011;47692;53.714;11.372;2023-02-08T13:19:30;25.70;;;12.20;;
61785;SDS011;47692;53.714;11.372;2023-02-08T13:22:00;23.25;;;11.32;;
61785;SDS011;47692;53.714;11.372;2023-02-08T13:26:58;26.25;;;11.75;;
61785;SDS011;47692;53.714;11.372;2023-02-08T13:29:24;25.48;;;11.95;;
61785;SDS011;47692;53.714;11.372;2023-02-08T13:32:02;23.75;;;11.45;;
61785;SDS011;47692;53.714;11.372;2023-02-08T13:34:35;24.95;;;11.80;;
61785;SDS011;47692;53.714;11.372;2023-02-08T13:37:05;26.92;;;12.02;;
61785;SDS011;47692;53.714;11.372;2023-02-08T13:39:48;28.05;;;12.32;;
61785;SDS011;47692;53.714;11.372;2023-02-08T13:42:22;27.02;;;12.07;;
61785;SDS011;47692;53.714;11.372;2023-02-08T13:47:21;29.90;;;13.65;;
61785;SDS011;47692;53.714;11.372;2023-02-08T13:57:55;26.95;;;13.70;;
61785;SDS011;47692;53.714;11.372;2023-02-08T14:02:59;27.17;;;14.82;;
61785;SDS011;47692;53.714;11.372;2023-02-08T14:11:02;33.47;;;15.32;;
61785;SDS011;47692;53.714;11.372;2023-02-08T14:13:36;31.63;;;15.38;;
61785;SDS011;47692;53.714;11.372;2023-02-08T14:16:30;32.53;;;14.88;;
61785;SDS011;47692;53.714;11.372;2023-02-08T14:19:22;30.70;;;15.10;;
61785;SDS011;47692;53.714;11.372;2023-02-08T14:21:58;37.75;;;15.70;;
61785;SDS011;47692;53.714;11.372;2023-02-08T14:24:27;32.38;;;14.52;;
61785;SDS011;47692;53.714;11.372;2023-02-08T14:27:32;31.50;;;14.77;;
61785;SDS011;47692;53.714;11.372;2023-02-08T14:32:40;32.22;;;14.23;;
61785;SDS011;47692;53.714;11.372;2023-02-08T14:37:38;32.47;;;14.38;;
61785;SDS011;47692;53.714;11.372;2023-02-08T14:42:52;28.90;;;13.35;;
61785;SDS011;47692;53.714;11.372;2023-02-08T14:45:34;31.65;;;13.80;;
61785;SDS011;47692;53.714;11.372;2023-02-08T14:50:52;28.50;;;13.48;;
61785;SDS011;47692;53.714;11.372;2023-02-08T14:58:33;31.15;;;14.00;;
61785;SDS011;47692;53.714;11.372;2023-02-08T15:01:18;28.95;;;13.50;;
61785;SDS011;47692;53.714;11.372;2023-02-08T15:03:49;27.20;;;12.82;;
61785;SDS011;47692;53.714;11.372;2023-02-08T15:08:55;30.33;;;13.23;;
61785;SDS011;47692;53.714;11.372;2023-02-08T15:11:23;26.67;;;13.15;;
61785;SDS011;47692;53.714;11.372;2023-02-08T15:13:54;30.85;;;14.00;;
61785;SDS011;47692;53.714;11.372;2023-02-08T15:16:22;37.95;;;16.95;;
61785;SDS011;47692;53.714;11.372;2023-02-08T15:18:53;28.00;;;13.57;;
61785;SDS011;47692;53.714;11.372;2023-02-08T15:21:19;31.15;;;14.55;;
61785;SDS011;47692;53.714;11.372;2023-02-08T15:24:10;33.28;;;14.93;;
61785;SDS011;47692;53.714;11.372;2023-02-08T15:26:43;31.08;;;13.88;;
61785;SDS011;47692;53.714;11.372;2023-02-08T15:29:17;31.23;;;14.15;;
61785;SDS011;47692;53.714;11.372;2023-02-08T15:31:50;27.40;;;13.52;;
61785;SDS011;47692;53.714;11.372;2023-02-08T15:34:18;30.75;;;13.30;;
61785;SDS011;47692;53.714;11.372;2023-02-08T15:36:49;28.15;;;13.23;;
61785;SDS011;47692;53.714;11.372;2023-02-08T15:39:29;26.88;;;12.63;;
61785;SDS011;47692;53.714;11.372;2023-02-08T15:41:59;30.60;;;14.43;;
61785;SDS011;47692;53.714;11.372;2023-02-08T15:44:27;30.50;;;14.70;;
61785;SDS011;47692;53.714;11.372;2023-02-08T15:46:54;25.90;;;12.18;;
61785;SDS011;47692;53.714;11.372;2023-02-08T15:52:05;26.00;;;12.27;;
61785;SDS011;47692;53.714;11.372;2023-02-08T15:54:31;30.02;;;12.68;;
61785;SDS011;47692;53.714;11.372;2023-02-08T15:56:59;30.02;;;14.18;;
61785;SDS011;47692;53.714;11.372;2023-02-08T15:59:41;32.33;;;13.45;;
61785;SDS011;47692;53.714;11.372;2023-02-08T16:04:55;30.02;;;12.77;;
61785;SDS011;47692;53.714;11.372;2023-02-08T16:07:30;28.85;;;13.30;;
61785;SDS011;47692;53.714;11.372;2023-02-08T16:10:01;29.42;;;12.77;;
61785;SDS011;47692;53.714;11.372;2023-02-08T16:12:28;29.27;;;13.90;;
61785;SDS011;47692;53.714;11.372;2023-02-08T16:14:54;31.52;;;13.52;;
61785;SDS011;47692;53.714;11.372;2023-02-08T16:17:41;32.05;;;13.95;;
61785;SDS011;47692;53.714;11.372;2023-02-08T16:20:27;30.05;;;13.85;;
61785;SDS011;47692;53.714;11.372;2023-02-08T16:22:59;28.73;;;14.07;;
61785;SDS011;47692;53.714;11.372;2023-02-08T16:25:45;34.45;;;14.07;;
61785;SDS011;47692;53.714;11.372;2023-02-08T16:30:47;35.42;;;14.73;;
61785;SDS011;47692;53.714;11.372;2023-02-08T16:33:12;32.45;;;13.25;;
61785;SDS011;47692;53.714;11.372;2023-02-08T16:35:38;33.90;;;15.68;;
61785;SDS011;47692;53.714;11.372;2023-02-08T16:38:05;37.15;;;15.13;;
61785;SDS011;47692;53.714;11.372;2023-02-08T16:43:24;36.72;;;15.30;;
61785;SDS011;47692;53.714;11.372;2023-02-08T16:48:53;34.65;;;14.45;;
61785;SDS011;47692;53.714;11.372;2023-02-08T16:51:21;35.03;;;15.18;;
61785;SDS011;47692;53.714;11.372;2023-02-08T16:53:52;38.95;;;18.30;;
61785;SDS011;47692;53.714;11.372;2023-02-08T16:56:20;35.42;;;15.80;;
61785;SDS011;47692;53.714;11.372;2023-02-08T16:58:46;35.40;;;15.50;;
61785;SDS011;47692;53.714;11.372;2023-02-08T17:01:15;30.88;;;14.07;;
61785;SDS011;47692;53.714;11.372;2023-02-08T17:03:40;37.35;;;15.48;;
61785;SDS011;47692;53.714;11.372;2023-02-08T17:06:06;34.63;;;15.70;;
61785;SDS011;47692;53.714;11.372;2023-02-08T17:08:42;31.58;;;15.52;;
61785;SDS011;47692;53.714;11.372;2023-02-08T17:11:08;35.80;;;15.18;;
61785;SDS011;47692;53.714;11.372;2023-02-08T17:13:33;36.42;;;15.65;;
61785;SDS011;47692;53.714;11.372;2023-02-08T17:15:59;36.13;;;15.30;;